createdAt,value
2018-05-11T00:00:32.233Z,77.62
2018-05-11T00:02:59.898Z,77.96
2018-05-11T00:05:27.562Z,77.75
2018-05-11T00:07:55.226Z,77.34
2018-05-11T00:10:22.866Z,77.36
2018-05-11T00:12:50.546Z,77.40
2018-05-11T00:15:18.212Z,77.65
2018-05-11T00:17:45.823Z,77.44
2018-05-11T00:20:13.466Z,77.38
2018-05-11T00:22:41.191Z,77.21
2018-05-11T00:25:08.858Z,77.27
2018-05-11T00:27:36.523Z,77.41
2018-05-11T00:30:04.187Z,77.46
2018-05-11T00:32:31.803Z,77.67
2018-05-11T00:34:59.438Z,77.49
2018-05-11T00:37:27.051Z,77.37
2018-05-11T00:39:54.687Z,77.16
2018-05-11T00:42:22.397Z,77.40
2018-05-11T00:44:50.027Z,77.86
2018-05-11T00:47:17.650Z,77.96
2018-05-11T00:49:45.378Z,77.80
2018-05-11T00:52:13.040Z,77.79
2018-05-11T00:54:40.681Z,77.90
2018-05-11T00:57:08.299Z,77.77
2018-05-11T00:59:35.934Z,77.74
2018-05-11T01:02:03.588Z,77.82
2018-05-11T01:04:31.255Z,77.62
2018-05-11T01:06:58.922Z,77.56
2018-05-11T01:09:26.573Z,77.34
2018-05-11T01:11:54.242Z,77.37
2018-05-11T01:14:21.854Z,77.28
2018-05-11T01:16:49.557Z,77.62
2018-05-11T01:19:17.226Z,77.64
2018-05-11T01:21:44.885Z,77.49
2018-05-11T01:24:13.002Z,77.14
2018-05-11T01:26:40.634Z,77.20
2018-05-11T01:29:08.250Z,76.96
2018-05-11T01:31:35.954Z,76.94
2018-05-11T01:34:03.566Z,76.85
2018-05-11T01:36:31.206Z,76.70
2018-05-11T01:39:00.434Z,76.63
2018-05-11T01:41:28.070Z,76.67
2018-05-11T01:43:55.677Z,76.72
2018-05-11T01:46:23.319Z,76.73
2018-05-11T01:48:51.081Z,76.66
2018-05-11T01:51:18.678Z,77.01
2018-05-11T01:53:46.346Z,76.78
2018-05-11T01:56:14.011Z,76.62
2018-05-11T01:58:41.631Z,76.28
2018-05-11T02:01:09.271Z,76.40
2018-05-11T02:03:36.895Z,76.44
2018-05-11T02:06:04.550Z,76.70
2018-05-11T02:08:32.170Z,76.62
2018-05-11T02:10:59.810Z,76.82
2018-05-11T02:13:27.443Z,76.69
2018-05-11T02:15:55.167Z,76.75
2018-05-11T02:18:22.759Z,76.34
2018-05-11T02:20:50.396Z,75.92
2018-05-11T02:23:18.015Z,75.66
2018-05-11T02:25:45.751Z,75.65
2018-05-11T02:28:13.415Z,75.95
2018-05-11T02:30:41.070Z,76.18
2018-05-11T02:33:08.740Z,76.32
2018-05-11T02:35:36.407Z,76.49
2018-05-11T02:38:04.043Z,76.57
2018-05-11T02:40:31.659Z,76.59
2018-05-11T02:42:59.303Z,76.63
2018-05-11T02:45:26.963Z,76.54
2018-05-11T02:47:54.715Z,76.34
2018-05-11T02:50:22.334Z,76.36
2018-05-11T02:52:49.971Z,76.16
2018-05-11T02:55:17.716Z,76.44
2018-05-11T02:57:45.470Z,76.64
2018-05-11T03:00:13.082Z,76.75
2018-05-11T03:02:40.787Z,76.66
2018-05-11T03:05:08.403Z,76.71
2018-05-11T03:07:36.048Z,76.62
2018-05-11T03:10:03.668Z,76.69
2018-05-11T03:12:31.307Z,76.65
2018-05-11T03:14:58.999Z,76.40
2018-05-11T03:17:26.663Z,76.35
2018-05-11T03:19:54.326Z,76.37
2018-05-11T03:22:21.967Z,76.22
2018-05-11T03:24:49.610Z,76.20
2018-05-11T03:27:17.314Z,76.25
2018-05-11T03:29:44.979Z,76.05
2018-05-11T03:32:12.617Z,76.05
2018-05-11T03:34:40.242Z,76.18
2018-05-11T03:37:07.882Z,76.48
2018-05-11T03:39:35.503Z,76.90
2018-05-11T03:42:03.171Z,76.92
2018-05-11T03:44:31.503Z,76.63
2018-05-11T03:46:59.226Z,76.30
2018-05-11T03:49:26.891Z,75.97
2018-05-11T03:51:54.507Z,76.29
2018-05-11T03:54:22.151Z,76.20
2018-05-11T03:56:49.875Z,76.43
2018-05-11T03:59:17.539Z,76.50
2018-05-11T04:01:56.819Z,76.49
2018-05-11T04:04:36.211Z,76.63
2018-05-11T04:07:15.655Z,76.33
2018-05-11T04:09:43.297Z,75.99
2018-05-11T04:12:10.938Z,76.01
2018-05-11T04:14:38.600Z,76.18
2018-05-11T04:19:33.271Z,76.56
2018-05-11T04:22:00.903Z,76.63
2018-05-11T04:24:28.544Z,76.84
2018-05-11T04:26:56.231Z,76.99
2018-05-11T04:29:23.867Z,77.33
2018-05-11T04:31:51.485Z,77.41
2018-05-11T04:34:19.122Z,77.39
2018-05-11T04:36:46.775Z,77.05
2018-05-11T04:39:14.438Z,77.30
2018-05-11T04:41:42.055Z,77.28
2018-05-11T04:44:09.763Z,77.39
2018-05-11T04:46:37.427Z,77.68
2018-05-11T04:49:05.185Z,77.55
2018-05-11T04:51:32.850Z,77.64
2018-05-11T04:54:00.504Z,77.90
2018-05-11T04:56:28.123Z,77.67
2018-05-11T04:58:55.742Z,77.43
2018-05-11T05:01:23.406Z,77.04
2018-05-11T05:03:51.023Z,77.26
2018-05-11T05:06:18.727Z,77.37
2018-05-11T05:08:46.392Z,77.18
2018-05-11T05:11:14.051Z,77.06
2018-05-11T05:13:41.719Z,77.17
2018-05-11T05:16:09.361Z,77.46
2018-05-11T05:18:36.979Z,77.65
2018-05-11T05:21:04.699Z,77.68
2018-05-11T05:23:32.315Z,77.82
2018-05-11T05:25:59.954Z,77.93
2018-05-11T05:28:27.567Z,78.03
2018-05-11T05:30:55.248Z,78.01
2018-05-11T05:33:22.911Z,78.13
2018-05-11T05:35:50.550Z,78.07
2018-05-11T05:38:18.162Z,78.06
2018-05-11T05:40:45.799Z,78.01
2018-05-11T05:43:13.422Z,77.89
2018-05-11T05:45:41.076Z,77.96
2018-05-11T05:48:08.691Z,77.90
2018-05-11T05:50:36.437Z,77.96
2018-05-11T05:53:04.052Z,77.76
2018-05-11T05:55:31.690Z,77.73
2018-05-11T05:57:59.307Z,77.66
2018-05-11T06:00:26.944Z,77.64
2018-05-11T06:02:54.558Z,77.52
2018-05-11T06:05:22.309Z,77.44
2018-05-11T06:07:49.983Z,77.29
2018-05-11T06:10:17.598Z,77.44
2018-05-11T06:12:45.377Z,77.19
2018-05-11T06:15:13.007Z,76.93
2018-05-11T06:17:40.758Z,76.57
2018-05-11T06:20:08.395Z,76.25
2018-05-11T06:22:36.034Z,76.36
2018-05-11T06:25:03.718Z,76.59
2018-05-11T06:27:31.499Z,76.51
2018-05-11T06:29:59.115Z,76.37
2018-05-11T06:32:26.806Z,76.03
2018-05-11T06:34:54.471Z,75.78
2018-05-11T06:37:22.112Z,75.62
2018-05-11T06:39:49.727Z,75.92
2018-05-11T06:42:17.372Z,75.90
2018-05-11T06:44:44.995Z,75.87
2018-05-11T06:47:12.631Z,75.59
2018-05-11T06:49:40.339Z,75.04
2018-05-11T06:52:07.983Z,74.99
2018-05-11T06:54:35.597Z,75.01
2018-05-11T06:57:03.235Z,74.91
2018-05-11T06:59:30.887Z,74.55
2018-05-11T07:01:58.523Z,74.17
2018-05-11T07:04:26.207Z,74.23
2018-05-11T07:06:53.843Z,73.53
2018-05-11T07:09:21.467Z,73.52
2018-05-11T07:11:49.110Z,73.57
2018-05-11T07:14:16.762Z,73.67
2018-05-11T07:16:44.423Z,73.26
2018-05-11T07:19:12.039Z,73.41
2018-05-11T07:21:39.744Z,73.18
2018-05-11T07:24:07.411Z,73.32
2018-05-11T07:26:35.071Z,73.43
2018-05-11T07:29:02.744Z,73.54
2018-05-11T07:31:30.361Z,73.71
2018-05-11T07:33:58.051Z,73.75
2018-05-11T07:36:25.668Z,73.67
2018-05-11T07:38:53.303Z,73.03
2018-05-11T07:41:20.923Z,72.67
2018-05-11T07:43:48.568Z,72.62
2018-05-11T07:46:16.288Z,72.73
2018-05-11T07:48:44.075Z,72.64
2018-05-11T07:51:11.694Z,72.24
2018-05-11T07:53:39.327Z,72.32
2018-05-11T07:56:06.944Z,71.82
2018-05-11T07:58:34.578Z,71.62
2018-05-11T08:01:02.243Z,71.89
2018-05-11T08:03:29.907Z,71.87
2018-05-11T08:05:57.567Z,71.84
2018-05-11T08:08:25.206Z,71.90
2018-05-11T08:10:52.890Z,71.55
2018-05-11T08:13:20.555Z,71.40
2018-05-11T08:15:48.171Z,71.31
2018-05-11T08:18:15.883Z,71.36
2018-05-11T08:20:43.503Z,71.25
2018-05-11T08:23:11.206Z,71.35
2018-05-11T08:25:38.823Z,71.31
2018-05-11T08:28:06.470Z,70.97
2018-05-11T08:30:34.083Z,71.05
2018-05-11T08:33:01.719Z,70.90
2018-05-11T08:35:29.331Z,70.87
2018-05-11T08:37:56.966Z,70.72
2018-05-11T08:40:24.603Z,70.95
2018-05-11T08:42:52.226Z,70.37
2018-05-11T08:45:19.963Z,70.51
2018-05-11T08:47:47.627Z,70.37
2018-05-11T08:50:15.255Z,70.26
2018-05-11T08:52:42.951Z,70.10
2018-05-11T08:55:10.578Z,70.11
2018-05-11T08:57:38.272Z,69.84
2018-05-11T09:00:05.903Z,69.73
2018-05-11T09:02:33.524Z,69.82
2018-05-11T09:05:01.159Z,70.00
2018-05-11T09:07:28.770Z,69.86
2018-05-11T09:09:56.483Z,69.47
2018-05-11T09:12:24.091Z,69.67
2018-05-11T09:14:51.803Z,69.78
2018-05-11T09:17:19.415Z,69.58
2018-05-11T09:19:47.046Z,69.52
2018-05-11T09:22:14.659Z,69.32
2018-05-11T09:24:42.360Z,69.03
2018-05-11T09:27:10.015Z,69.33
2018-05-11T09:29:37.647Z,69.29
2018-05-11T09:32:05.348Z,69.58
2018-05-11T09:34:33.019Z,69.65
2018-05-11T09:37:00.634Z,69.62
2018-05-11T09:39:28.301Z,69.70
2018-05-11T09:41:55.999Z,69.89
2018-05-11T09:44:23.659Z,69.32
2018-05-11T09:46:51.271Z,69.18
2018-05-11T09:49:18.981Z,69.12
2018-05-11T09:51:46.594Z,68.86
2018-05-11T09:54:14.209Z,68.77
2018-05-11T09:56:41.839Z,69.04
2018-05-11T09:59:09.454Z,69.25
2018-05-11T10:01:37.302Z,69.15
2018-05-11T10:04:04.867Z,69.51
2018-05-11T10:06:32.618Z,69.68
2018-05-11T10:09:00.237Z,69.88
2018-05-11T10:11:27.874Z,69.76
2018-05-11T10:13:55.637Z,69.50
2018-05-11T10:16:23.267Z,69.55
2018-05-11T10:18:50.879Z,68.92
2018-05-11T10:21:18.522Z,68.77
2018-05-11T10:23:46.154Z,68.81
2018-05-11T10:26:13.796Z,68.89
2018-05-11T10:28:41.431Z,69.09
2018-05-11T10:31:09.071Z,69.32
2018-05-11T10:33:36.803Z,69.06
2018-05-11T10:36:04.438Z,68.62
2018-05-11T10:38:32.059Z,68.24
2018-05-11T10:40:59.705Z,67.92
2018-05-11T10:43:27.351Z,68.51
2018-05-11T10:45:55.012Z,68.25
2018-05-11T10:48:22.678Z,68.18
2018-05-11T10:50:50.327Z,68.35
2018-05-11T10:53:17.943Z,68.52
2018-05-11T10:55:45.664Z,68.49
2018-05-11T10:58:13.418Z,68.64
2018-05-11T11:00:41.059Z,68.44
2018-05-11T11:03:08.948Z,68.58
2018-05-11T11:05:36.726Z,68.83
2018-05-11T11:08:04.374Z,68.80
2018-05-11T11:10:32.052Z,69.04
2018-05-11T11:12:59.696Z,69.33
2018-05-11T11:15:27.332Z,69.78
2018-05-11T11:17:54.971Z,69.52
2018-05-11T11:20:22.591Z,69.08
2018-05-11T11:22:50.258Z,69.12
2018-05-11T11:25:17.920Z,69.29
2018-05-11T11:27:45.559Z,69.23
2018-05-11T11:30:13.247Z,69.41
2018-05-11T11:32:40.902Z,69.22
2018-05-11T11:35:08.570Z,69.48
2018-05-11T11:37:36.324Z,69.33
2018-05-11T11:40:03.999Z,69.06
2018-05-11T11:42:31.635Z,68.91
2018-05-11T11:44:59.262Z,68.77
2018-05-11T11:47:27.023Z,68.44
2018-05-11T11:49:54.626Z,68.41
2018-05-11T11:52:22.307Z,68.61
2018-05-11T11:54:49.926Z,68.42
2018-05-11T11:57:17.563Z,68.36
2018-05-11T11:59:45.388Z,68.43
2018-05-11T12:02:13.063Z,68.24
2018-05-11T12:04:40.681Z,68.27
2018-05-11T12:07:08.323Z,68.33
2018-05-11T12:09:35.942Z,67.81
2018-05-11T12:12:03.606Z,67.80
2018-05-11T12:14:31.271Z,68.21
2018-05-11T12:16:58.926Z,67.55
2018-05-11T12:19:26.599Z,67.13
2018-05-11T12:21:54.216Z,66.80
2018-05-11T12:24:21.923Z,66.55
2018-05-11T12:26:49.540Z,66.41
2018-05-11T12:29:17.183Z,66.54
2018-05-11T12:31:44.803Z,66.51
2018-05-11T12:34:12.447Z,66.13
2018-05-11T12:36:40.078Z,66.18
2018-05-11T12:39:07.715Z,66.33
2018-05-11T12:41:35.351Z,66.38
2018-05-11T12:44:02.987Z,65.63
2018-05-11T12:46:30.752Z,64.80
2018-05-11T12:48:58.346Z,64.40
2018-05-11T12:51:25.999Z,64.28
2018-05-11T12:53:53.639Z,64.05
2018-05-11T12:56:21.263Z,63.51
2018-05-11T12:58:48.904Z,62.77
2018-05-11T13:01:16.519Z,62.27
2018-05-11T13:03:44.164Z,62.38
2018-05-11T13:06:11.778Z,62.25
2018-05-11T13:08:39.415Z,61.82
2018-05-11T13:11:07.081Z,61.36
2018-05-11T13:13:34.722Z,61.19
2018-05-11T13:16:02.339Z,61.24
2018-05-11T13:18:30.086Z,60.51
2018-05-11T13:20:57.702Z,59.87
2018-05-11T13:23:25.340Z,60.16
2018-05-11T13:25:52.963Z,61.11
2018-05-11T13:28:20.603Z,61.36
2018-05-11T13:30:48.222Z,61.01
2018-05-11T13:33:15.883Z,60.99
2018-05-11T13:35:43.511Z,60.30
2018-05-11T13:38:11.130Z,60.49
2018-05-11T13:40:38.839Z,60.83
2018-05-11T13:43:06.459Z,61.29
2018-05-11T13:45:34.099Z,61.73
2018-05-11T13:48:01.711Z,61.74
2018-05-11T13:50:29.355Z,62.08
2018-05-11T13:52:57.006Z,62.42
2018-05-11T13:55:24.643Z,62.17
2018-05-11T13:57:52.267Z,62.00
2018-05-11T14:00:19.936Z,62.24
2018-05-11T14:02:47.551Z,62.19
2018-05-11T14:05:15.259Z,62.57
2018-05-11T14:07:42.875Z,62.66
2018-05-11T14:10:10.592Z,62.74
2018-05-11T14:12:38.247Z,63.23
2018-05-11T14:15:05.917Z,63.36
2018-05-11T14:17:33.576Z,63.40
2018-05-11T14:20:01.216Z,63.44
2018-05-11T14:22:28.836Z,63.62
2018-05-11T14:24:56.513Z,63.93
2018-05-11T14:27:24.130Z,63.75
2018-05-11T14:29:51.772Z,63.91
2018-05-11T14:32:19.395Z,63.71
2018-05-11T14:34:47.031Z,63.66
2018-05-11T14:37:14.667Z,63.19
2018-05-11T14:39:42.308Z,62.62
2018-05-11T14:42:09.935Z,62.18
2018-05-11T14:44:37.574Z,61.84
2018-05-11T14:47:05.195Z,61.69
2018-05-11T14:49:32.880Z,60.93
2018-05-11T14:52:00.492Z,60.61
2018-05-11T14:54:28.111Z,60.28
2018-05-11T14:56:55.769Z,60.47
2018-05-11T14:59:23.519Z,59.30
2018-05-11T15:01:51.158Z,59.05
2018-05-11T15:04:18.783Z,59.41
2018-05-11T15:06:46.515Z,59.15
2018-05-11T15:09:14.175Z,58.43
2018-05-11T15:11:41.811Z,57.58
2018-05-11T15:14:09.436Z,57.41
2018-05-11T15:16:37.076Z,58.74
2018-05-11T15:19:04.699Z,58.13
2018-05-11T15:21:32.383Z,57.46
2018-05-11T15:23:59.998Z,58.23
2018-05-11T15:26:27.645Z,57.42
2018-05-11T15:28:55.370Z,57.36
2018-05-11T15:31:23.022Z,57.70
2018-05-11T15:33:50.723Z,57.99
2018-05-11T15:36:18.467Z,58.48
2018-05-11T15:38:46.082Z,57.85
2018-05-11T15:41:13.715Z,58.00
2018-05-11T15:43:41.348Z,57.34
2018-05-11T15:46:09.015Z,58.13
2018-05-11T15:48:36.635Z,57.68
2018-05-11T15:51:04.335Z,57.76
2018-05-11T15:53:32.000Z,57.65
2018-05-11T15:55:59.663Z,57.64
2018-05-11T15:58:27.327Z,57.83
2018-05-11T16:00:55.103Z,57.29
2018-05-11T16:03:22.751Z,57.03
2018-05-11T16:05:50.442Z,57.03
2018-05-11T16:08:18.096Z,56.75
2018-05-11T16:10:45.744Z,56.98
2018-05-11T16:13:13.400Z,57.27
2018-05-11T16:15:41.019Z,56.99
2018-05-11T16:18:14.618Z,57.45
2018-05-11T16:20:42.331Z,58.41
2018-05-11T16:23:09.991Z,58.22
2018-05-11T16:25:37.651Z,58.21
2018-05-11T16:28:05.315Z,58.85
2018-05-11T16:30:32.931Z,59.01
2018-05-11T16:33:00.635Z,59.51
2018-05-11T16:35:28.251Z,59.53
2018-05-11T16:37:55.890Z,59.47
2018-05-11T16:40:23.546Z,59.77
2018-05-11T16:42:51.169Z,60.05
2018-05-11T16:45:18.846Z,60.28
2018-05-11T16:47:46.512Z,60.12
2018-05-11T16:50:14.126Z,59.67
2018-05-11T16:52:41.764Z,58.89
2018-05-11T16:55:09.377Z,58.37
2018-05-11T16:57:37.023Z,57.53
2018-05-11T17:00:04.641Z,56.61
2018-05-11T17:02:32.275Z,55.49
2018-05-11T17:04:59.940Z,54.95
2018-05-11T17:07:27.611Z,54.56
2018-05-11T17:09:55.230Z,54.71
2018-05-11T17:12:22.931Z,55.08
2018-05-11T17:14:50.543Z,55.28
2018-05-11T17:17:18.183Z,55.32
2018-05-11T17:19:45.819Z,55.73
2018-05-11T17:22:13.436Z,56.28
2018-05-11T17:24:41.070Z,56.77
2018-05-11T17:27:08.699Z,57.24
2018-05-11T17:29:36.340Z,57.59
2018-05-11T17:32:03.960Z,57.95
2018-05-11T17:34:31.598Z,58.75
2018-05-11T17:36:59.211Z,59.25
2018-05-11T17:39:26.855Z,60.05
2018-05-11T17:44:37.909Z,61.28
2018-05-11T17:47:05.535Z,61.65
2018-05-11T17:49:33.223Z,62.00
2018-05-11T17:52:00.848Z,62.63
2018-05-11T17:54:28.490Z,62.74
2018-05-11T17:56:56.299Z,63.18
2018-05-11T17:59:23.875Z,63.70
2018-05-11T18:01:51.491Z,64.17
2018-05-11T18:04:19.131Z,64.43
2018-05-11T18:06:46.864Z,64.71
2018-05-11T18:09:14.528Z,64.85
2018-05-11T18:11:42.186Z,65.19
2018-05-11T18:14:09.823Z,65.65
2018-05-11T18:16:37.443Z,66.19
2018-05-11T18:19:05.260Z,66.69
2018-05-11T18:21:32.834Z,67.14
2018-05-11T18:24:00.481Z,67.71
2018-05-11T18:26:28.126Z,67.96
2018-05-11T18:28:55.775Z,68.32
2018-05-11T18:31:23.395Z,68.60
2018-05-11T18:33:51.119Z,68.87
2018-05-11T18:36:18.745Z,69.09
2018-05-11T18:38:46.388Z,69.29
2018-05-11T18:41:14.036Z,69.64
2018-05-11T18:43:41.654Z,69.83
2018-05-11T18:46:09.292Z,70.14
2018-05-11T18:48:37.023Z,70.30
2018-05-11T18:51:04.662Z,70.56
2018-05-11T18:53:32.554Z,70.86
2018-05-11T18:55:59.955Z,71.05
2018-05-11T18:58:27.573Z,71.26
2018-05-11T19:00:55.223Z,71.58
2018-05-11T19:03:22.851Z,71.78
2018-05-11T19:05:50.497Z,72.04
2018-05-11T19:08:18.218Z,72.29
2018-05-11T19:10:45.859Z,72.56
2018-05-11T19:13:13.479Z,72.84
2018-05-11T19:15:41.211Z,73.09
2018-05-11T19:18:08.826Z,73.35
2018-05-11T19:20:36.485Z,73.47
2018-05-11T19:23:04.106Z,73.59
2018-05-11T19:25:31.855Z,73.72
2018-05-11T19:27:59.472Z,73.87
2018-05-11T19:30:27.111Z,73.99
2018-05-11T19:32:54.724Z,74.24
2018-05-11T19:35:22.375Z,74.47
2018-05-11T19:37:50.006Z,74.64
2018-05-11T19:40:17.671Z,74.87
2018-05-11T19:42:45.287Z,75.09
2018-05-11T19:45:12.951Z,75.31
2018-05-11T19:47:40.607Z,75.48
2018-05-11T19:50:08.242Z,75.72
2018-05-11T19:52:35.939Z,75.92
2018-05-11T19:55:03.579Z,76.15
2018-05-11T19:57:31.215Z,76.42
2018-05-11T19:59:58.830Z,76.68
2018-05-11T20:02:26.471Z,76.85
2018-05-11T20:04:54.150Z,76.91
2018-05-11T20:07:21.795Z,77.00
2018-05-11T20:09:49.471Z,77.05
2018-05-11T20:12:17.116Z,76.88
2018-05-11T20:14:44.795Z,76.82
2018-05-11T20:17:12.459Z,76.73
2018-05-11T20:19:40.080Z,76.60
2018-05-11T20:22:07.787Z,76.52
2018-05-11T20:24:35.399Z,76.44
2018-05-11T20:27:03.112Z,76.34
2018-05-11T20:29:30.770Z,76.42
2018-05-11T20:31:58.419Z,76.41
2018-05-11T20:34:26.099Z,76.41
2018-05-11T20:36:53.739Z,76.45
2018-05-11T20:39:21.423Z,76.44
2018-05-11T20:41:49.088Z,76.47
2018-05-11T20:44:16.709Z,76.47
2018-05-11T20:46:44.406Z,76.64
2018-05-11T20:49:12.023Z,76.76
2018-05-11T20:51:39.737Z,76.94
2018-05-11T20:54:07.356Z,77.11
2018-05-11T20:56:34.995Z,77.18
2018-05-11T20:59:02.719Z,77.25
2018-05-11T21:01:30.383Z,77.29
2018-05-11T21:03:57.999Z,77.32
2018-05-11T21:06:25.707Z,77.32
2018-05-11T21:08:53.323Z,77.25
2018-05-11T21:11:20.948Z,77.12
2018-05-11T21:13:48.588Z,76.96
2018-05-11T21:16:16.207Z,76.84
2018-05-11T21:18:43.852Z,76.81
2018-05-11T21:21:11.478Z,76.77
2018-05-11T21:23:39.120Z,76.78
2018-05-11T21:26:06.735Z,76.61
2018-05-11T21:28:34.463Z,76.50
2018-05-11T21:31:02.129Z,76.41
2018-05-11T21:33:29.744Z,76.52
2018-05-11T21:35:57.383Z,76.44
2018-05-11T21:38:25.023Z,76.34
2018-05-11T21:40:52.657Z,76.33
2018-05-11T21:43:20.299Z,76.18
2018-05-11T21:45:47.915Z,76.12
2018-05-11T21:48:15.663Z,76.13
2018-05-11T21:50:43.312Z,76.10
2018-05-11T21:53:10.988Z,76.08
2018-05-11T21:55:38.598Z,76.01
2018-05-11T21:58:06.311Z,76.03
2018-05-11T22:00:33.927Z,75.91
2018-05-11T22:03:01.567Z,75.73
2018-05-11T22:05:29.271Z,75.71
2018-05-11T22:07:56.865Z,75.62
2018-05-11T22:10:24.489Z,75.54
2018-05-11T22:12:52.127Z,75.55
2018-05-11T22:15:19.744Z,75.62
2018-05-11T22:17:47.398Z,75.67
2018-05-11T22:20:15.076Z,75.79
2018-05-11T22:22:42.832Z,75.77
2018-05-11T22:25:10.591Z,75.81
2018-05-11T22:27:38.207Z,75.74
2018-05-11T22:30:05.855Z,75.85
2018-05-11T22:32:33.474Z,75.82
2018-05-11T22:35:01.147Z,75.86
2018-05-11T22:37:28.806Z,75.89
2018-05-11T22:39:56.471Z,75.76
2018-05-11T22:42:24.135Z,75.64
2018-05-11T22:44:51.804Z,75.71
2018-05-11T22:47:19.459Z,75.67
2018-05-11T22:49:47.119Z,75.54
2018-05-11T22:52:14.787Z,75.36
2018-05-11T22:54:42.427Z,75.29
2018-05-11T22:57:10.055Z,75.32
2018-05-11T22:59:37.697Z,75.44
2018-05-11T23:02:05.316Z,75.40
2018-05-11T23:04:32.959Z,75.45
2018-05-11T23:07:00.655Z,75.46
2018-05-11T23:09:28.319Z,75.41
2018-05-11T23:11:55.988Z,75.50
2018-05-11T23:14:23.643Z,75.50
2018-05-11T23:16:51.259Z,75.65
2018-05-11T23:19:18.903Z,75.67
2018-05-11T23:21:46.518Z,75.60
2018-05-11T23:24:14.163Z,75.58
2018-05-11T23:26:41.855Z,75.83
2018-05-11T23:29:09.523Z,75.90
2018-05-11T23:31:37.179Z,75.90
2018-05-11T23:34:04.840Z,75.89
2018-05-11T23:36:32.503Z,75.74
2018-05-11T23:39:00.118Z,75.81
2018-05-11T23:41:27.827Z,76.04
2018-05-11T23:43:55.442Z,76.06
2018-05-11T23:46:23.084Z,75.78
2018-05-11T23:48:50.814Z,75.70
2018-05-11T23:51:18.579Z,75.79
2018-05-11T23:53:46.195Z,75.71
2018-05-11T23:56:13.903Z,75.41
2018-05-11T23:58:41.519Z,75.19
